sensor_id;sensor_type;location;lat;lon;timestamp;P1;durP1;ratioP1;P2;durP2;ratioP2
45232;SDS011;30969;51.052;17.056;2023-02-10T00:02:55;39.90;;;20.35;;
45232;SDS011;30969;51.052;17.056;2023-02-10T00:07:59;45.75;;;19.85;;
45232;SDS011;30969;51.052;17.056;2023-02-10T00:13:02;41.63;;;19.08;;
45232;SDS011;30969;51.052;17.056;2023-02-10T00:18:07;38.35;;;19.25;;
45232;SDS011;30969;51.052;17.056;2023-02-10T00:23:10;37.53;;;17.65;;
45232;SDS011;30969;51.052;17.056;2023-02-10T00:28:14;38.03;;;17.52;;
45232;SDS011;30969;51.052;17.056;2023-02-10T00:33:19;34.60;;;16.33;;
45232;SDS011;30969;51.052;17.056;2023-02-10T00:38:22;36.42;;;17.05;;
45232;SDS011;30969;51.052;17.056;2023-02-10T00:43:25;32.75;;;16.23;;
45232;SDS011;30969;51.052;17.056;2023-02-10T00:48:30;33.60;;;16.05;;
45232;SDS011;30969;51.052;17.056;2023-02-10T00:53:34;28.85;;;14.18;;
45232;SDS011;30969;51.052;17.056;2023-02-10T00:58:38;29.48;;;13.93;;
45232;SDS011;30969;51.052;17.056;2023-02-10T01:03:43;27.98;;;13.60;;
45232;SDS011;30969;51.052;17.056;2023-02-10T01:08:47;26.58;;;12.65;;
45232;SDS011;30969;51.052;17.056;2023-02-10T01:13:51;22.05;;;11.00;;
45232;SDS011;30969;51.052;17.056;2023-02-10T01:18:57;22.42;;;12.45;;
45232;SDS011;30969;51.052;17.056;2023-02-10T01:24:02;24.20;;;12.73;;
45232;SDS011;30969;51.052;17.056;2023-02-10T01:29:05;23.33;;;12.07;;
45232;SDS011;30969;51.052;17.056;2023-02-10T01:34:10;21.33;;;11.55;;
45232;SDS011;30969;51.052;17.056;2023-02-10T01:39:15;21.45;;;11.23;;
45232;SDS011;30969;51.052;17.056;2023-02-10T01:50:00;27.23;;;13.90;;
45232;SDS011;30969;51.052;17.056;2023-02-10T01:55:05;27.30;;;14.10;;
45232;SDS011;30969;51.052;17.056;2023-02-10T02:00:11;25.48;;;13.65;;
45232;SDS011;30969;51.052;17.056;2023-02-10T02:05:20;25.35;;;13.57;;
45232;SDS011;30969;51.052;17.056;2023-02-10T02:10:43;27.15;;;14.02;;
45232;SDS011;30969;51.052;17.056;2023-02-10T02:15:57;28.95;;;14.15;;
45232;SDS011;30969;51.052;17.056;2023-02-10T02:27:01;26.10;;;12.43;;
45232;SDS011;30969;51.052;17.056;2023-02-10T02:32:33;19.67;;;12.48;;
45232;SDS011;30969;51.052;17.056;2023-02-10T02:37:39;23.90;;;11.13;;
45232;SDS011;30969;51.052;17.056;2023-02-10T02:42:45;20.35;;;11.15;;
45232;SDS011;30969;51.052;17.056;2023-02-10T02:47:56;17.30;;;9.85;;
45232;SDS011;30969;51.052;17.056;2023-02-10T02:53:19;20.40;;;10.70;;
45232;SDS011;30969;51.052;17.056;2023-02-10T02:58:32;20.75;;;10.32;;
45232;SDS011;30969;51.052;17.056;2023-02-10T03:03:43;19.38;;;11.75;;
45232;SDS011;30969;51.052;17.056;2023-02-10T03:08:47;24.20;;;12.10;;
45232;SDS011;30969;51.052;17.056;2023-02-10T03:13:51;18.13;;;11.00;;
45232;SDS011;30969;51.052;17.056;2023-02-10T03:18:56;22.27;;;12.05;;
45232;SDS011;30969;51.052;17.056;2023-02-10T03:23:59;19.00;;;10.18;;
45232;SDS011;30969;51.052;17.056;2023-02-10T03:29:03;20.30;;;11.02;;
45232;SDS011;30969;51.052;17.056;2023-02-10T03:34:09;22.15;;;11.35;;
45232;SDS011;30969;51.052;17.056;2023-02-10T03:39:12;19.90;;;11.70;;
45232;SDS011;30969;51.052;17.056;2023-02-10T03:44:16;24.42;;;12.23;;
45232;SDS011;30969;51.052;17.056;2023-02-10T03:49:20;21.08;;;11.40;;
45232;SDS011;30969;51.052;17.056;2023-02-10T03:54:24;18.70;;;11.05;;
45232;SDS011;30969;51.052;17.056;2023-02-10T03:59:27;26.27;;;11.73;;
45232;SDS011;30969;51.052;17.056;2023-02-10T04:04:32;21.20;;;11.55;;
45232;SDS011;30969;51.052;17.056;2023-02-10T04:09:36;19.15;;;11.75;;
45232;SDS011;30969;51.052;17.056;2023-02-10T04:14:39;19.00;;;11.10;;
45232;SDS011;30969;51.052;17.056;2023-02-10T04:19:44;19.25;;;10.90;;
45232;SDS011;30969;51.052;17.056;2023-02-10T04:24:47;21.58;;;11.55;;
45232;SDS011;30969;51.052;17.056;2023-02-10T04:29:51;22.20;;;11.13;;
45232;SDS011;30969;51.052;17.056;2023-02-10T04:34:56;23.60;;;12.55;;
45232;SDS011;30969;51.052;17.056;2023-02-10T04:39:59;22.77;;;13.15;;
45232;SDS011;30969;51.052;17.056;2023-02-10T04:45:02;23.83;;;13.43;;
45232;SDS011;30969;51.052;17.056;2023-02-10T04:50:08;23.80;;;13.02;;
45232;SDS011;30969;51.052;17.056;2023-02-10T04:55:11;26.02;;;13.38;;
45232;SDS011;30969;51.052;17.056;2023-02-10T05:00:15;21.38;;;12.18;;
45232;SDS011;30969;51.052;17.056;2023-02-10T05:05:20;24.20;;;10.82;;
45232;SDS011;30969;51.052;17.056;2023-02-10T05:10:25;21.85;;;12.20;;
45232;SDS011;30969;51.052;17.056;2023-02-10T05:15:29;20.05;;;11.63;;
45232;SDS011;30969;51.052;17.056;2023-02-10T05:20:34;21.23;;;11.55;;
45232;SDS011;30969;51.052;17.056;2023-02-10T05:25:38;33.25;;;12.80;;
45232;SDS011;30969;51.052;17.056;2023-02-10T05:30:41;20.60;;;11.77;;
45232;SDS011;30969;51.052;17.056;2023-02-10T05:35:46;19.85;;;11.13;;
45232;SDS011;30969;51.052;17.056;2023-02-10T05:40:50;22.85;;;12.15;;
45232;SDS011;30969;51.052;17.056;2023-02-10T05:45:54;23.50;;;12.85;;
45232;SDS011;30969;51.052;17.056;2023-02-10T05:50:58;21.95;;;11.93;;
45232;SDS011;30969;51.052;17.056;2023-02-10T05:56:02;23.02;;;12.20;;
45232;SDS011;30969;51.052;17.056;2023-02-10T06:01:05;21.08;;;11.93;;
45232;SDS011;30969;51.052;17.056;2023-02-10T06:06:11;22.42;;;11.85;;
45232;SDS011;30969;51.052;17.056;2023-02-10T06:11:14;23.45;;;12.10;;
45232;SDS011;30969;51.052;17.056;2023-02-10T06:16:18;23.25;;;12.52;;
45232;SDS011;30969;51.052;17.056;2023-02-10T06:21:23;24.90;;;12.40;;
45232;SDS011;30969;51.052;17.056;2023-02-10T06:26:27;24.85;;;13.40;;
45232;SDS011;30969;51.052;17.056;2023-02-10T06:31:31;21.90;;;12.05;;
45232;SDS011;30969;51.052;17.056;2023-02-10T06:36:36;35.55;;;14.98;;
45232;SDS011;30969;51.052;17.056;2023-02-10T06:41:40;24.30;;;13.40;;
45232;SDS011;30969;51.052;17.056;2023-02-10T06:46:44;23.42;;;13.30;;
45232;SDS011;30969;51.052;17.056;2023-02-10T06:51:49;26.63;;;13.73;;
45232;SDS011;30969;51.052;17.056;2023-02-10T06:56:53;28.10;;;14.18;;
45232;SDS011;30969;51.052;17.056;2023-02-10T07:01:56;27.83;;;14.98;;
45232;SDS011;30969;51.052;17.056;2023-02-10T07:07:03;28.40;;;14.55;;
45232;SDS011;30969;51.052;17.056;2023-02-10T07:12:08;27.70;;;14.32;;
45232;SDS011;30969;51.052;17.056;2023-02-10T07:17:13;30.30;;;14.40;;
45232;SDS011;30969;51.052;17.056;2023-02-10T07:22:18;29.45;;;14.50;;
45232;SDS011;30969;51.052;17.056;2023-02-10T07:27:22;34.40;;;14.25;;
45232;SDS011;30969;51.052;17.056;2023-02-10T07:32:26;26.38;;;13.27;;
45232;SDS011;30969;51.052;17.056;2023-02-10T07:37:32;31.25;;;16.00;;
45232;SDS011;30969;51.052;17.056;2023-02-10T07:42:36;27.08;;;13.48;;
45232;SDS011;30969;51.052;17.056;2023-02-10T07:47:40;31.80;;;14.80;;
45232;SDS011;30969;51.052;17.056;2023-02-10T07:52:45;28.45;;;14.23;;
45232;SDS011;30969;51.052;17.056;2023-02-10T07:57:50;32.38;;;15.57;;
45232;SDS011;30969;51.052;17.056;2023-02-10T08:02:54;29.73;;;14.57;;
45232;SDS011;30969;51.052;17.056;2023-02-10T08:08:00;23.50;;;13.38;;
45232;SDS011;30969;51.052;17.056;2023-02-10T08:13:03;39.28;;;15.95;;
45232;SDS011;30969;51.052;17.056;2023-02-10T08:18:07;28.75;;;15.63;;
45232;SDS011;30969;51.052;17.056;2023-02-10T08:23:13;28.92;;;15.32;;
45232;SDS011;30969;51.052;17.056;2023-02-10T08:28:18;34.65;;;16.88;;
45232;SDS011;30969;51.052;17.056;2023-02-10T08:33:22;31.95;;;15.52;;
45232;SDS011;30969;51.052;17.056;2023-02-10T08:38:30;33.60;;;16.30;;
45232;SDS011;30969;51.052;17.056;2023-02-10T08:43:34;28.20;;;15.55;;
45232;SDS011;30969;51.052;17.056;2023-02-10T08:48:38;37.30;;;16.95;;
45232;SDS011;30969;51.052;17.056;2023-02-10T08:53:43;37.03;;;19.13;;
45232;SDS011;30969;51.052;17.056;2023-02-10T08:58:47;34.40;;;16.60;;
45232;SDS011;30969;51.052;17.056;2023-02-10T09:03:52;33.63;;;16.92;;
45232;SDS011;30969;51.052;17.056;2023-02-10T09:08:57;32.58;;;17.65;;
45232;SDS011;30969;51.052;17.056;2023-02-10T09:14:02;34.17;;;18.65;;
45232;SDS011;30969;51.052;17.056;2023-02-10T09:19:05;40.35;;;18.58;;
45232;SDS011;30969;51.052;17.056;2023-02-10T09:24:11;35.20;;;17.40;;
45232;SDS011;30969;51.052;17.056;2023-02-10T09:29:14;35.92;;;16.73;;
45232;SDS011;30969;51.052;17.056;2023-02-10T09:34:18;34.33;;;15.63;;
45232;SDS011;30969;51.052;17.056;2023-02-10T09:39:24;32.67;;;16.38;;
45232;SDS011;30969;51.052;17.056;2023-02-10T09:44:28;34.08;;;17.10;;
45232;SDS011;30969;51.052;17.056;2023-02-10T09:49:43;26.80;;;13.63;;
45232;SDS011;30969;51.052;17.056;2023-02-10T09:54:56;31.67;;;15.77;;
45232;SDS011;30969;51.052;17.056;2023-02-10T10:00:02;33.97;;;16.42;;
45232;SDS011;30969;51.052;17.056;2023-02-10T10:05:15;37.10;;;15.98;;
45232;SDS011;30969;51.052;17.056;2023-02-10T10:10:27;32.50;;;15.32;;
45232;SDS011;30969;51.052;17.056;2023-02-10T10:15:38;46.70;;;18.13;;
45232;SDS011;30969;51.052;17.056;2023-02-10T10:20:50;36.22;;;15.18;;
45232;SDS011;30969;51.052;17.056;2023-02-10T10:26:00;34.85;;;16.45;;
45232;SDS011;30969;51.052;17.056;2023-02-10T10:36:29;29.63;;;16.08;;
45232;SDS011;30969;51.052;17.056;2023-02-10T10:41:38;32.25;;;15.07;;
45232;SDS011;30969;51.052;17.056;2023-02-10T10:46:44;29.83;;;15.82;;
45232;SDS011;30969;51.052;17.056;2023-02-10T10:51:51;35.75;;;15.38;;
45232;SDS011;30969;51.052;17.056;2023-02-10T10:56:58;34.10;;;17.23;;
45232;SDS011;30969;51.052;17.056;2023-02-10T11:02:10;35.53;;;18.38;;
45232;SDS011;30969;51.052;17.056;2023-02-10T11:07:17;34.22;;;17.15;;
45232;SDS011;30969;51.052;17.056;2023-02-10T11:12:27;41.35;;;18.45;;
45232;SDS011;30969;51.052;17.056;2023-02-10T11:17:35;35.55;;;17.48;;
45232;SDS011;30969;51.052;17.056;2023-02-10T11:22:42;33.65;;;17.40;;
45232;SDS011;30969;51.052;17.056;2023-02-10T11:27:50;34.78;;;16.25;;
45232;SDS011;30969;51.052;17.056;2023-02-10T11:32:55;33.05;;;16.30;;
45232;SDS011;30969;51.052;17.056;2023-02-10T11:38:00;38.10;;;17.35;;
45232;SDS011;30969;51.052;17.056;2023-02-10T11:43:10;33.75;;;16.67;;
45232;SDS011;30969;51.052;17.056;2023-02-10T11:48:17;30.17;;;16.00;;
45232;SDS011;30969;51.052;17.056;2023-02-10T11:53:23;35.63;;;16.52;;
45232;SDS011;30969;51.052;17.056;2023-02-10T11:58:37;29.63;;;15.40;;
45232;SDS011;30969;51.052;17.056;2023-02-10T12:04:06;28.75;;;14.52;;
45232;SDS011;30969;51.052;17.056;2023-02-10T12:09:24;34.38;;;17.45;;
45232;SDS011;30969;51.052;17.056;2023-02-10T12:14:40;30.25;;;16.70;;
45232;SDS011;30969;51.052;17.056;2023-02-10T12:19:54;33.45;;;16.40;;
45232;SDS011;30969;51.052;17.056;2023-02-10T12:25:11;34.65;;;15.93;;
45232;SDS011;30969;51.052;17.056;2023-02-10T12:30:24;35.60;;;18.15;;
45232;SDS011;30969;51.052;17.056;2023-02-10T12:35:37;32.20;;;15.43;;
45232;SDS011;30969;51.052;17.056;2023-02-10T12:40:52;36.10;;;18.70;;
45232;SDS011;30969;51.052;17.056;2023-02-10T12:46:08;34.72;;;17.30;;
45232;SDS011;30969;51.052;17.056;2023-02-10T12:51:22;31.58;;;15.38;;
45232;SDS011;30969;51.052;17.056;2023-02-10T12:56:36;31.02;;;15.00;;
45232;SDS011;30969;51.052;17.056;2023-02-10T13:01:45;30.75;;;14.10;;
45232;SDS011;30969;51.052;17.056;2023-02-10T13:06:55;32.47;;;14.35;;
45232;SDS011;30969;51.052;17.056;2023-02-10T13:12:07;31.38;;;15.02;;
45232;SDS011;30969;51.052;17.056;2023-02-10T13:17:19;28.85;;;14.13;;
45232;SDS011;30969;51.052;17.056;2023-02-10T13:22:24;27.98;;;13.45;;
45232;SDS011;30969;51.052;17.056;2023-02-10T13:27:48;29.40;;;13.50;;
45232;SDS011;30969;51.052;17.056;2023-02-10T13:33:01;26.98;;;13.70;;
45232;SDS011;30969;51.052;17.056;2023-02-10T13:38:17;30.67;;;13.57;;
45232;SDS011;30969;51.052;17.056;2023-02-10T13:43:24;28.73;;;15.02;;
45232;SDS011;30969;51.052;17.056;2023-02-10T13:48:34;26.30;;;13.43;;
45232;SDS011;30969;51.052;17.056;2023-02-10T13:53:40;31.52;;;13.48;;
45232;SDS011;30969;51.052;17.056;2023-02-10T13:58:48;27.83;;;12.43;;
45232;SDS011;30969;51.052;17.056;2023-02-10T14:03:55;24.63;;;11.40;;
45232;SDS011;30969;51.052;17.056;2023-02-10T14:09:01;24.30;;;11.93;;
45232;SDS011;30969;51.052;17.056;2023-02-10T14:14:18;25.23;;;11.10;;
45232;SDS011;30969;51.052;17.056;2023-02-10T14:19:31;19.35;;;10.30;;
45232;SDS011;30969;51.052;17.056;2023-02-10T14:24:36;22.83;;;11.27;;
45232;SDS011;30969;51.052;17.056;2023-02-10T14:29:52;23.42;;;11.98;;
45232;SDS011;30969;51.052;17.056;2023-02-10T14:35:01;24.23;;;11.20;;
45232;SDS011;30969;51.052;17.056;2023-02-10T14:40:16;24.90;;;11.63;;
45232;SDS011;30969;51.052;17.056;2023-02-10T14:45:22;25.27;;;10.35;;
45232;SDS011;30969;51.052;17.056;2023-02-10T14:50:30;22.77;;;10.38;;
45232;SDS011;30969;51.052;17.056;2023-02-10T14:55:36;26.00;;;12.25;;
45232;SDS011;30969;51.052;17.056;2023-02-10T15:00:52;24.05;;;11.60;;
45232;SDS011;30969;51.052;17.056;2023-02-10T15:06:00;28.42;;;14.40;;
45232;SDS011;30969;51.052;17.056;2023-02-10T15:11:05;24.52;;;12.32;;
45232;SDS011;30969;51.052;17.056;2023-02-10T15:16:10;25.90;;;12.45;;
45232;SDS011;30969;51.052;17.056;2023-02-10T15:21:26;27.67;;;11.57;;
45232;SDS011;30969;51.052;17.056;2023-02-10T15:26:34;25.35;;;12.35;;
45232;SDS011;30969;51.052;17.056;2023-02-10T15:31:42;29.42;;;12.10;;
45232;SDS011;30969;51.052;17.056;2023-02-10T15:36:57;32.45;;;13.10;;
45232;SDS011;30969;51.052;17.056;2023-02-10T15:42:04;27.85;;;11.57;;
45232;SDS011;30969;51.052;17.056;2023-02-10T15:52:46;23.83;;;10.07;;
45232;SDS011;30969;51.052;17.056;2023-02-10T15:57:50;17.90;;;7.32;;
45232;SDS011;30969;51.052;17.056;2023-02-10T16:02:54;19.08;;;7.80;;
45232;SDS011;30969;51.052;17.056;2023-02-10T16:08:01;12.00;;;6.05;;
45232;SDS011;30969;51.052;17.056;2023-02-10T16:13:08;17.33;;;7.72;;
45232;SDS011;30969;51.052;17.056;2023-02-10T16:18:15;14.48;;;6.80;;
45232;SDS011;30969;51.052;17.056;2023-02-10T16:23:23;20.25;;;7.45;;
45232;SDS011;30969;51.052;17.056;2023-02-10T16:28:28;13.90;;;6.05;;
45232;SDS011;30969;51.052;17.056;2023-02-10T16:33:32;14.13;;;6.38;;
45232;SDS011;30969;51.052;17.056;2023-02-10T16:38:38;19.02;;;7.22;;
45232;SDS011;30969;51.052;17.056;2023-02-10T16:43:41;15.43;;;5.70;;
45232;SDS011;30969;51.052;17.056;2023-02-10T16:48:45;14.30;;;6.25;;
45232;SDS011;30969;51.052;17.056;2023-02-10T16:53:51;12.73;;;5.75;;
45232;SDS011;30969;51.052;17.056;2023-02-10T16:58:56;13.35;;;5.68;;
45232;SDS011;30969;51.052;17.056;2023-02-10T17:03:59;13.63;;;5.72;;
45232;SDS011;30969;51.052;17.056;2023-02-10T17:09:05;12.95;;;5.88;;
45232;SDS011;30969;51.052;17.056;2023-02-10T17:14:08;14.02;;;6.03;;
45232;SDS011;30969;51.052;17.056;2023-02-10T17:19:12;17.85;;;6.53;;
45232;SDS011;30969;51.052;17.056;2023-02-10T17:24:19;16.85;;;6.70;;
45232;SDS011;30969;51.052;17.056;2023-02-10T17:29:24;15.82;;;6.97;;
45232;SDS011;30969;51.052;17.056;2023-02-10T17:34:28;13.82;;;6.57;;
45232;SDS011;30969;51.052;17.056;2023-02-10T17:39:36;16.80;;;7.50;;
45232;SDS011;30969;51.052;17.056;2023-02-10T17:44:47;12.90;;;6.85;;
45232;SDS011;30969;51.052;17.056;2023-02-10T17:49:51;15.07;;;6.75;;
45232;SDS011;30969;51.052;17.056;2023-02-10T17:54:56;14.55;;;6.70;;
45232;SDS011;30969;51.052;17.056;2023-02-10T18:00:05;14.73;;;6.22;;
45232;SDS011;30969;51.052;17.056;2023-02-10T18:05:10;12.90;;;6.65;;
45232;SDS011;30969;51.052;17.056;2023-02-10T18:10:15;17.88;;;8.82;;
45232;SDS011;30969;51.052;17.056;2023-02-10T18:15:18;21.25;;;12.05;;
45232;SDS011;30969;51.052;17.056;2023-02-10T18:20:22;31.75;;;15.40;;
45232;SDS011;30969;51.052;17.056;2023-02-10T18:25:27;35.83;;;17.55;;
45232;SDS011;30969;51.052;17.056;2023-02-10T18:30:32;43.17;;;21.50;;
45232;SDS011;30969;51.052;17.056;2023-02-10T18:35:35;45.70;;;23.20;;
45232;SDS011;30969;51.052;17.056;2023-02-10T18:40:41;41.70;;;21.25;;
45232;SDS011;30969;51.052;17.056;2023-02-10T18:45:46;43.58;;;21.98;;
45232;SDS011;30969;51.052;17.056;2023-02-10T18:50:50;44.38;;;24.10;;
45232;SDS011;30969;51.052;17.056;2023-02-10T18:55:55;46.65;;;22.90;;
45232;SDS011;30969;51.052;17.056;2023-02-10T19:01:03;41.80;;;21.30;;
45232;SDS011;30969;51.052;17.056;2023-02-10T19:06:07;39.88;;;22.27;;
45232;SDS011;30969;51.052;17.056;2023-02-10T19:11:13;47.72;;;22.45;;
45232;SDS011;30969;51.052;17.056;2023-02-10T19:16:17;44.92;;;23.13;;
45232;SDS011;30969;51.052;17.056;2023-02-10T19:21:21;39.42;;;20.30;;
45232;SDS011;30969;51.052;17.056;2023-02-10T19:26:26;44.13;;;22.13;;
45232;SDS011;30969;51.052;17.056;2023-02-10T19:31:31;51.97;;;25.48;;
45232;SDS011;30969;51.052;17.056;2023-02-10T19:36:35;44.20;;;23.35;;
45232;SDS011;30969;51.052;17.056;2023-02-10T19:41:40;46.42;;;23.83;;
45232;SDS011;30969;51.052;17.056;2023-02-10T19:46:44;41.58;;;22.20;;
45232;SDS011;30969;51.052;17.056;2023-02-10T19:51:47;46.50;;;22.40;;
45232;SDS011;30969;51.052;17.056;2023-02-10T19:56:52;51.25;;;24.90;;
45232;SDS011;30969;51.052;17.056;2023-02-10T20:01:56;54.50;;;26.60;;
45232;SDS011;30969;51.052;17.056;2023-02-10T20:06:59;50.08;;;27.17;;
45232;SDS011;30969;51.052;17.056;2023-02-10T20:12:04;57.10;;;28.55;;
45232;SDS011;30969;51.052;17.056;2023-02-10T20:17:09;58.75;;;29.63;;
45232;SDS011;30969;51.052;17.056;2023-02-10T20:22:12;55.35;;;28.88;;
45232;SDS011;30969;51.052;17.056;2023-02-10T20:27:17;57.83;;;29.30;;
45232;SDS011;30969;51.052;17.056;2023-02-10T20:32:24;54.17;;;28.88;;
45232;SDS011;30969;51.052;17.056;2023-02-10T20:37:27;52.00;;;27.67;;
45232;SDS011;30969;51.052;17.056;2023-02-10T20:42:32;52.47;;;26.38;;
45232;SDS011;30969;51.052;17.056;2023-02-10T20:47:35;58.38;;;28.45;;
45232;SDS011;30969;51.052;17.056;2023-02-10T20:52:39;51.28;;;28.27;;
45232;SDS011;30969;51.052;17.056;2023-02-10T20:57:45;60.03;;;32.05;;
45232;SDS011;30969;51.052;17.056;2023-02-10T21:02:49;61.78;;;30.75;;
45232;SDS011;30969;51.052;17.056;2023-02-10T21:07:52;61.22;;;31.45;;
45232;SDS011;30969;51.052;17.056;2023-02-10T21:12:57;61.10;;;29.50;;
45232;SDS011;30969;51.052;17.056;2023-02-10T21:18:01;67.45;;;30.13;;
45232;SDS011;30969;51.052;17.056;2023-02-10T21:23:05;66.28;;;31.10;;
45232;SDS011;30969;51.052;17.056;2023-02-10T21:28:10;63.22;;;29.48;;
45232;SDS011;30969;51.052;17.056;2023-02-10T21:33:14;67.63;;;30.75;;
45232;SDS011;30969;51.052;17.056;2023-02-10T21:38:19;53.63;;;26.58;;
45232;SDS011;30969;51.052;17.056;2023-02-10T21:43:25;53.38;;;25.77;;
45232;SDS011;30969;51.052;17.056;2023-02-10T21:48:28;61.00;;;26.95;;
45232;SDS011;30969;51.052;17.056;2023-02-10T21:53:32;55.25;;;26.63;;
45232;SDS011;30969;51.052;17.056;2023-02-10T21:58:37;68.10;;;30.20;;
45232;SDS011;30969;51.052;17.056;2023-02-10T22:03:40;51.90;;;24.73;;
45232;SDS011;30969;51.052;17.056;2023-02-10T22:08:44;42.58;;;21.67;;
45232;SDS011;30969;51.052;17.056;2023-02-10T22:13:49;47.40;;;22.60;;
45232;SDS011;30969;51.052;17.056;2023-02-10T22:18:53;49.95;;;22.58;;
45232;SDS011;30969;51.052;17.056;2023-02-10T22:23:56;40.05;;;21.85;;
45232;SDS011;30969;51.052;17.056;2023-02-10T22:29:01;42.53;;;19.95;;
45232;SDS011;30969;51.052;17.056;2023-02-10T22:34:05;47.17;;;23.50;;
45232;SDS011;30969;51.052;17.056;2023-02-10T22:39:10;44.88;;;21.48;;
45232;SDS011;30969;51.052;17.056;2023-02-10T22:44:15;41.33;;;19.95;;
45232;SDS011;30969;51.052;17.056;2023-02-10T22:49:19;42.22;;;21.40;;
45232;SDS011;30969;51.052;17.056;2023-02-10T22:54:22;41.13;;;21.60;;
45232;SDS011;30969;51.052;17.056;2023-02-10T22:59:27;46.38;;;23.48;;
45232;SDS011;30969;51.052;17.056;2023-02-10T23:04:30;40.58;;;20.95;;
45232;SDS011;30969;51.052;17.056;2023-02-10T23:09:34;40.05;;;21.77;;
45232;SDS011;30969;51.052;17.056;2023-02-10T23:14:38;38.88;;;21.00;;
45232;SDS011;30969;51.052;17.056;2023-02-10T23:19:42;41.75;;;20.77;;
45232;SDS011;30969;51.052;17.056;2023-02-10T23:24:46;39.75;;;20.52;;
45232;SDS011;30969;51.052;17.056;2023-02-10T23:29:54;43.38;;;20.77;;
45232;SDS011;30969;51.052;17.056;2023-02-10T23:34:59;39.70;;;20.63;;
45232;SDS011;30969;51.052;17.056;2023-02-10T23:40:02;43.92;;;21.05;;
45232;SDS011;30969;51.052;17.056;2023-02-10T23:45:08;45.08;;;21.17;;
45232;SDS011;30969;51.052;17.056;2023-02-10T23:50:11;45.03;;;22.73;;
45232;SDS011;30969;51.052;17.056;2023-02-10T23:55:15;50.70;;;24.23;;
